Time;durP1;ratioP1;P1;durP2;ratioP2;P2;SDS_P1;SDS_P2;PMS_P1;PMS_P2;Temp;Humidity;BMP_temperature;BMP_pressure;BME280_temperature;BME280_humidity;BME280_pressure;Samples;Min_cycle;Max_cycle;Signal;HPM_P1;HPM_P2
2022/02/11 00:00:53;;;;;;;10;6.500001;;;;;;;5;63.1377;95554.01;;;;
2022/02/11 00:02:12;;;;;;;10;6.500001;;;;;;;5;63.1377;95554.01;;;;
2022/02/11 00:06:27;;;;;;;10.05;6.349999;;;;;;;5.14;63.28613;95548.25;;;;
2022/02/11 00:07:28;;;;;;;10.05;6.349999;;;;;;;5.14;63.28613;95548.25;;;;
2022/02/11 00:08:29;;;;;;;10.05;6.349999;;;;;;;5.14;63.28613;95548.25;;;;
2022/02/11 00:09:29;;;;;;;10.05;6.349999;;;;;;;5.14;63.28613;95548.25;;;;
2022/02/11 00:10:30;;;;;;;10.05;6.349999;;;;;;;5.14;63.28613;95548.25;;;;
2022/02/11 00:11:30;;;;;;;10.05;6.349999;;;;;;;5.14;63.28613;95548.25;;;;
2022/02/11 00:12:33;;;;;;;10.05;6.349999;;;;;;;5.14;63.28613;95548.25;;;;
2022/02/11 00:13:34;;;;;;;10.05;6.349999;;;;;;;5.14;63.28613;95548.25;;;;
2022/02/11 00:14:43;;;;;;;11.85;6.95;;;;;;;5.15;63.52051;95523.13;;;;
2022/02/11 00:15:44;;;;;;;11.85;6.95;;;;;;;5.15;63.52051;95523.13;;;;
2022/02/11 00:16:45;;;;;;;11.85;6.95;;;;;;;5.15;63.52051;95523.13;;;;
2022/02/11 00:17:45;;;;;;;11.85;6.95;;;;;;;5.15;63.52051;95523.13;;;;
2022/02/11 00:18:46;;;;;;;11.85;6.95;;;;;;;5.15;63.52051;95523.13;;;;
2022/02/11 00:19:47;;;;;;;11.85;6.95;;;;;;;5.15;63.52051;95523.13;;;;
2022/02/11 00:20:47;;;;;;;11.85;6.95;;;;;;;5.15;63.52051;95523.13;;;;
2022/02/11 00:21:50;;;;;;;11.85;6.95;;;;;;;5.15;63.52051;95523.13;;;;
2022/02/11 00:22:51;;;;;;;11.85;6.95;;;;;;;5.15;63.52051;95523.13;;;;
2022/02/11 00:23:52;;;;;;;11.85;6.95;;;;;;;5.15;63.52051;95523.13;;;;
2022/02/11 00:24:54;;;;;;;10.2;7.25;;;;;;;5.22;63.99805;95523.49;;;;
2022/02/11 00:25:58;;;;;;;10.2;7.25;;;;;;;5.22;63.99805;95523.49;;;;
2022/02/11 00:27:20;;;;;;;10.2;7.25;;;;;;;5.22;63.99805;95523.49;;;;
2022/02/11 00:33:24;;;;;;;10.2;7.25;;;;;;;5.22;63.99805;95523.49;;;;
2022/02/11 00:34:32;;;;;;;10.2;7.25;;;;;;;5.22;63.99805;95523.49;;;;
2022/02/11 00:35:39;;;;;;;12.7;6.799999;;;;;;;5.24;64.22266;95516.18;;;;
2022/02/11 00:36:45;;;;;;;12.7;6.799999;;;;;;;5.24;64.22266;95516.18;;;;
2022/02/11 00:37:45;;;;;;;12.7;6.799999;;;;;;;5.24;64.22266;95516.18;;;;
2022/02/11 00:39:03;;;;;;;12.7;6.799999;;;;;;;5.24;64.22266;95516.18;;;;
2022/02/11 00:40:13;;;;;;;12.7;6.799999;;;;;;;5.24;64.22266;95516.18;;;;
2022/02/11 00:46:52;;;;;;;11.35;7.3;;;;;;;5.23;64.5918;95518.05;;;;
2022/02/11 00:53:35;;;;;;;11.35;7.3;;;;;;;5.23;64.5918;95518.05;;;;
2022/02/11 01:05:00;;;;;;;10.9;7.200001;;;;;;;5.27;64.94824;95504.99;;;;
2022/02/11 01:06:01;;;;;;;10.9;7.200001;;;;;;;5.27;64.94824;95504.99;;;;
2022/02/11 01:07:01;;;;;;;10.9;7.200001;;;;;;;5.27;64.94824;95504.99;;;;
2022/02/11 01:08:03;;;;;;;10.85;6.949999;;;;;;;5.32;65.36914;95479.89;;;;
2022/02/11 01:09:04;;;;;;;10.85;6.949999;;;;;;;5.32;65.36914;95479.89;;;;
2022/02/11 01:10:05;;;;;;;10.85;6.949999;;;;;;;5.32;65.36914;95479.89;;;;
2022/02/11 01:11:12;;;;;;;10.85;6.949999;;;;;;;5.32;65.36914;95479.89;;;;
2022/02/11 01:12:13;;;;;;;10.85;6.949999;;;;;;;5.32;65.36914;95479.89;;;;
2022/02/11 01:13:14;;;;;;;10.85;6.949999;;;;;;;5.32;65.36914;95479.89;;;;
2022/02/11 01:14:15;;;;;;;10.85;6.949999;;;;;;;5.32;65.36914;95479.89;;;;
2022/02/11 01:15:16;;;;;;;10.85;6.949999;;;;;;;5.32;65.36914;95479.89;;;;
2022/02/11 01:16:22;;;;;;;10.85;6.949999;;;;;;;5.32;65.36914;95479.89;;;;
2022/02/11 01:17:31;;;;;;;10.85;6.949999;;;;;;;5.32;65.36914;95479.89;;;;
2022/02/11 01:18:31;;;;;;;11.75;7.050001;;;;;;;5.37;65.90625;95481.03;;;;
2022/02/11 01:19:39;;;;;;;11.75;7.050001;;;;;;;5.37;65.90625;95481.03;;;;
2022/02/11 01:20:46;;;;;;;11.75;7.050001;;;;;;;5.37;65.90625;95481.03;;;;
2022/02/11 01:21:55;;;;;;;11.75;7.050001;;;;;;;5.37;65.90625;95481.03;;;;
2022/02/11 01:23:14;;;;;;;11.75;7.050001;;;;;;;5.37;65.90625;95481.03;;;;
2022/02/11 01:24:31;;;;;;;11.75;7.050001;;;;;;;5.37;65.90625;95481.03;;;;
2022/02/11 01:25:49;;;;;;;11.75;7.050001;;;;;;;5.37;65.90625;95481.03;;;;
2022/02/11 01:27:03;;;;;;;11.75;7.050001;;;;;;;5.37;65.90625;95481.03;;;;
2022/02/11 01:28:11;;;;;;;11.75;7.050001;;;;;;;5.37;65.90625;95481.03;;;;
2022/02/11 01:29:38;;;;;;;10.85;7.199999;;;;;;;5.41;66.14551;95470.25;;;;
2022/02/11 01:30:56;;;;;;;10.85;7.199999;;;;;;;5.41;66.14551;95470.25;;;;
2022/02/11 01:32:03;;;;;;;10.85;7.199999;;;;;;;5.41;66.14551;95470.25;;;;
2022/02/11 01:33:27;;;;;;;10.85;7.199999;;;;;;;5.41;66.14551;95470.25;;;;
2022/02/11 01:34:45;;;;;;;10.85;7.199999;;;;;;;5.41;66.14551;95470.25;;;;
2022/02/11 01:35:56;;;;;;;10.85;7.199999;;;;;;;5.41;66.14551;95470.25;;;;
2022/02/11 01:37:17;;;;;;;10.85;7.199999;;;;;;;5.41;66.14551;95470.25;;;;
2022/02/11 01:38:27;;;;;;;10.85;7.199999;;;;;;;5.41;66.14551;95470.25;;;;
2022/02/11 01:40:26;;;;;;;10.85;7.199999;;;;;;;5.41;66.14551;95470.25;;;;
2022/02/11 01:55:02;;;;;;;12.8;7.050002;;;;;;;5.6;66.76758;95443.13;;;;
2022/02/11 01:56:13;;;;;;;12.8;7.050002;;;;;;;5.6;66.76758;95443.13;;;;
2022/02/11 01:57:31;;;;;;;12.8;7.050002;;;;;;;5.6;66.76758;95443.13;;;;
2022/02/11 01:58:58;;;;;;;12.8;7.050002;;;;;;;5.6;66.76758;95443.13;;;;
2022/02/11 02:00:25;;;;;;;12.8;7.050002;;;;;;;5.6;66.76758;95443.13;;;;
2022/02/11 02:11:58;;;;;;;12.25;7.4;;;;;;;5.67;66.91895;95435.42;;;;
2022/02/11 02:13:20;;;;;;;12.85;8.45;;;;;;;5.62;67.21777;95431.28;;;;
2022/02/11 02:14:54;;;;;;;12.85;8.45;;;;;;;5.62;67.21777;95431.28;;;;
2022/02/11 02:16:28;;;;;;;12.85;8.45;;;;;;;5.62;67.21777;95431.28;;;;
2022/02/11 02:18:17;;;;;;;12.85;8.45;;;;;;;5.62;67.21777;95431.28;;;;
2022/02/11 02:19:57;;;;;;;12.85;8.45;;;;;;;5.62;67.21777;95431.28;;;;
2022/02/11 02:21:39;;;;;;;12.85;8.45;;;;;;;5.62;67.21777;95431.28;;;;
2022/02/11 02:22:55;;;;;;;13.65;9.349999;;;;;;;5.6;67.81836;95419.44;;;;
2022/02/11 02:24:06;;;;;;;13.65;9.349999;;;;;;;5.6;67.81836;95419.44;;;;
2022/02/11 02:25:11;;;;;;;13.65;9.349999;;;;;;;5.6;67.81836;95419.44;;;;
2022/02/11 02:26:22;;;;;;;13.65;9.349999;;;;;;;5.6;67.81836;95419.44;;;;
2022/02/11 02:27:35;;;;;;;13.65;9.349999;;;;;;;5.6;67.81836;95419.44;;;;
2022/02/11 02:29:39;;;;;;;13.65;9.349999;;;;;;;5.6;67.81836;95419.44;;;;
2022/02/11 02:31:45;;;;;;;13.65;9.349999;;;;;;;5.6;67.81836;95419.44;;;;
2022/02/11 02:38:16;;;;;;;14.15;9.2;;;;;;;5.59;68.19824;95429.85;;;;
2022/02/11 02:39:34;;;;;;;14.15;9.2;;;;;;;5.59;68.19824;95429.85;;;;
2022/02/11 02:56:51;;;;;;;15.7;10.3;;;;;;;5.55;69.24023;95430.86;;;;
2022/02/11 02:57:58;;;;;;;15.7;10.3;;;;;;;5.55;69.24023;95430.86;;;;
2022/02/11 02:59:09;;;;;;;15.7;10.3;;;;;;;5.55;69.24023;95430.86;;;;
2022/02/11 03:00:27;;;;;;;15.7;10.3;;;;;;;5.55;69.24023;95430.86;;;;
2022/02/11 03:01:37;;;;;;;15.7;10.3;;;;;;;5.55;69.24023;95430.86;;;;
2022/02/11 03:34:57;;;;;;;11.1;7.500001;;;;;;;5.55;72.70215;95418.8;;;;
2022/02/11 03:57:27;;;;;;;9.300001;5.45;;;;;;;5.61;74.10938;95430.47;;;;
2022/02/11 04:23:21;;;;;;;4.3;3.55;;;;;;;5.43;78.12598;95472.64;;;;
2022/02/11 04:25:33;;;;;;;4.3;3.55;;;;;;;5.43;78.12598;95472.64;;;;
2022/02/11 04:27:39;;;;;;;4.3;3.55;;;;;;;5.43;78.12598;95472.64;;;;
2022/02/11 04:55:22;;;;;;;5.05;3.75;;;;;;;5.17;81.73047;95464.37;;;;
2022/02/11 04:56:24;;;;;;;5.05;3.75;;;;;;;5.17;81.73047;95464.37;;;;
2022/02/11 05:02:39;;;;;;;5.599999;3.65;;;;;;;5.11;82.80176;95458.59;;;;
2022/02/11 05:03:40;;;;;;;5.599999;3.65;;;;;;;5.11;82.80176;95458.59;;;;
2022/02/11 05:04:41;;;;;;;5.599999;3.65;;;;;;;5.11;82.80176;95458.59;;;;
2022/02/11 05:05:57;;;;;;;5.599999;3.65;;;;;;;5.11;82.80176;95458.59;;;;
2022/02/11 05:06:59;;;;;;;5.599999;3.65;;;;;;;5.11;82.80176;95458.59;;;;
2022/02/11 05:08:03;;;;;;;5.599999;3.65;;;;;;;5.11;82.80176;95458.59;;;;
2022/02/11 05:09:03;;;;;;;5.599999;3.65;;;;;;;5.11;82.80176;95458.59;;;;
2022/02/11 05:10:04;;;;;;;5.599999;3.65;;;;;;;5.11;82.80176;95458.59;;;;
2022/02/11 05:11:09;;;;;;;5.599999;3.65;;;;;;;5.11;82.80176;95458.59;;;;
2022/02/11 05:12:09;;;;;;;5.599999;3.65;;;;;;;5.11;82.80176;95458.59;;;;
2022/02/11 05:13:10;;;;;;;4.900001;3.95;;;;;;;5.04;83.63379;95466.56;;;;
2022/02/11 05:14:13;;;;;;;4.900001;3.95;;;;;;;5.04;83.63379;95466.56;;;;
2022/02/11 05:15:15;;;;;;;4.900001;3.95;;;;;;;5.04;83.63379;95466.56;;;;
2022/02/11 05:16:15;;;;;;;4.900001;3.95;;;;;;;5.04;83.63379;95466.56;;;;
2022/02/11 05:17:16;;;;;;;4.900001;3.95;;;;;;;5.04;83.63379;95466.56;;;;
2022/02/11 05:18:17;;;;;;;4.900001;3.95;;;;;;;5.04;83.63379;95466.56;;;;
2022/02/11 05:19:17;;;;;;;4.900001;3.95;;;;;;;5.04;83.63379;95466.56;;;;
2022/02/11 05:20:18;;;;;;;4.900001;3.95;;;;;;;5.04;83.63379;95466.56;;;;
2022/02/11 05:21:19;;;;;;;4.900001;3.95;;;;;;;5.04;83.63379;95466.56;;;;
2022/02/11 05:22:19;;;;;;;4.900001;3.95;;;;;;;5.04;83.63379;95466.56;;;;
2022/02/11 05:23:20;;;;;;;4.900001;3.95;;;;;;;5.04;83.63379;95466.56;;;;
2022/02/11 05:24:20;;;;;;;5.05;4.5;;;;;;;5.01;84.1543;95466.05;;;;
2022/02/11 05:25:21;;;;;;;5.05;4.5;;;;;;;5.01;84.1543;95466.05;;;;
2022/02/11 05:26:21;;;;;;;5.05;4.5;;;;;;;5.01;84.1543;95466.05;;;;
2022/02/11 05:27:22;;;;;;;5.05;4.5;;;;;;;5.01;84.1543;95466.05;;;;
2022/02/11 05:28:23;;;;;;;5.05;4.5;;;;;;;5.01;84.1543;95466.05;;;;
2022/02/11 05:29:24;;;;;;;5.05;4.5;;;;;;;5.01;84.1543;95466.05;;;;
2022/02/11 05:30:24;;;;;;;5.05;4.5;;;;;;;5.01;84.1543;95466.05;;;;
2022/02/11 05:31:25;;;;;;;5.05;4.5;;;;;;;5.01;84.1543;95466.05;;;;
2022/02/11 05:32:25;;;;;;;5.05;4.5;;;;;;;5.01;84.1543;95466.05;;;;
2022/02/11 05:33:27;;;;;;;5.05;4.5;;;;;;;5.01;84.1543;95466.05;;;;
2022/02/11 05:34:27;;;;;;;4.4;3.95;;;;;;;5;85.12988;95483.22;;;;
2022/02/11 05:35:28;;;;;;;4.4;3.95;;;;;;;5;85.12988;95483.22;;;;
2022/02/11 05:36:29;;;;;;;4.4;3.95;;;;;;;5;85.12988;95483.22;;;;
2022/02/11 05:37:29;;;;;;;4.4;3.95;;;;;;;5;85.12988;95483.22;;;;
2022/02/11 05:38:30;;;;;;;4.4;3.95;;;;;;;5;85.12988;95483.22;;;;
2022/02/11 05:39:30;;;;;;;4.4;3.95;;;;;;;5;85.12988;95483.22;;;;
2022/02/11 05:40:31;;;;;;;4.4;3.95;;;;;;;5;85.12988;95483.22;;;;
2022/02/11 05:41:32;;;;;;;4.4;3.95;;;;;;;5;85.12988;95483.22;;;;
2022/02/11 05:42:32;;;;;;;4.4;3.95;;;;;;;5;85.12988;95483.22;;;;
2022/02/11 05:43:33;;;;;;;4.4;3.95;;;;;;;5;85.12988;95483.22;;;;
2022/02/11 05:44:33;;;;;;;4.4;3.95;;;;;;;5;85.12988;95483.22;;;;
2022/02/11 05:45:34;;;;;;;5.5;4;;;;;;;5.04;86.04492;95488.39;;;;
2022/02/11 05:46:35;;;;;;;5.5;4;;;;;;;5.04;86.04492;95488.39;;;;
2022/02/11 05:47:35;;;;;;;5.5;4;;;;;;;5.04;86.04492;95488.39;;;;
2022/02/11 05:48:38;;;;;;;5.5;4;;;;;;;5.04;86.04492;95488.39;;;;
2022/02/11 05:49:39;;;;;;;5.5;4;;;;;;;5.04;86.04492;95488.39;;;;
2022/02/11 05:50:39;;;;;;;5.5;4;;;;;;;5.04;86.04492;95488.39;;;;
2022/02/11 05:51:40;;;;;;;5.5;4;;;;;;;5.04;86.04492;95488.39;;;;
2022/02/11 05:52:41;;;;;;;5.5;4;;;;;;;5.04;86.04492;95488.39;;;;
2022/02/11 05:53:41;;;;;;;5.5;4;;;;;;;5.04;86.04492;95488.39;;;;
2022/02/11 05:54:42;;;;;;;5.5;4;;;;;;;5.04;86.04492;95488.39;;;;
2022/02/11 05:55:42;;;;;;;5.5;4;;;;;;;5.04;86.04492;95488.39;;;;
2022/02/11 05:56:43;;;;;;;4.5;3.65;;;;;;;5.08;86.89258;95507.12;;;;
2022/02/11 05:57:44;;;;;;;4.5;3.65;;;;;;;5.08;86.89258;95507.12;;;;
2022/02/11 05:58:44;;;;;;;4.5;3.65;;;;;;;5.08;86.89258;95507.12;;;;
2022/02/11 05:59:44;;;;;;;4.5;3.65;;;;;;;5.08;86.89258;95507.12;;;;
2022/02/11 06:00:45;;;;;;;4.5;3.65;;;;;;;5.08;86.89258;95507.12;;;;
2022/02/11 06:01:45;;;;;;;4.5;3.65;;;;;;;5.08;86.89258;95507.12;;;;
2022/02/11 06:02:46;;;;;;;4.5;3.65;;;;;;;5.08;86.89258;95507.12;;;;
2022/02/11 06:03:46;;;;;;;4.5;3.65;;;;;;;5.08;86.89258;95507.12;;;;
2022/02/11 06:04:47;;;;;;;4.5;3.65;;;;;;;5.08;86.89258;95507.12;;;;
2022/02/11 06:05:48;;;;;;;4.5;3.65;;;;;;;5.08;86.89258;95507.12;;;;
2022/02/11 06:06:48;;;;;;;13.2;8.800001;;;;;;;5.06;87.47949;95547.89;;;;
2022/02/11 06:07:49;;;;;;;13.2;8.800001;;;;;;;5.06;87.47949;95547.89;;;;
2022/02/11 06:08:49;;;;;;;13.2;8.800001;;;;;;;5.06;87.47949;95547.89;;;;
2022/02/11 06:09:50;;;;;;;13.2;8.800001;;;;;;;5.06;87.47949;95547.89;;;;
2022/02/11 06:10:50;;;;;;;13.2;8.800001;;;;;;;5.06;87.47949;95547.89;;;;
2022/02/11 06:11:51;;;;;;;13.2;8.800001;;;;;;;5.06;87.47949;95547.89;;;;
2022/02/11 06:12:51;;;;;;;13.2;8.800001;;;;;;;5.06;87.47949;95547.89;;;;
2022/02/11 06:13:52;;;;;;;13.2;8.800001;;;;;;;5.06;87.47949;95547.89;;;;
2022/02/11 06:14:52;;;;;;;13.2;8.800001;;;;;;;5.06;87.47949;95547.89;;;;
2022/02/11 06:15:55;;;;;;;13.2;8.800001;;;;;;;5.06;87.47949;95547.89;;;;
2022/02/11 06:16:56;;;;;;;13.2;8.800001;;;;;;;5.06;87.47949;95547.89;;;;
2022/02/11 06:17:56;;;;;;;14.2;9.8;;;;;;;4.87;87.74512;95577.17;;;;
2022/02/11 06:18:57;;;;;;;14.2;9.8;;;;;;;4.87;87.74512;95577.17;;;;
2022/02/11 06:20:00;;;;;;;14.2;9.8;;;;;;;4.87;87.74512;95577.17;;;;
2022/02/11 06:21:01;;;;;;;14.2;9.8;;;;;;;4.87;87.74512;95577.17;;;;
2022/02/11 06:22:01;;;;;;;14.2;9.8;;;;;;;4.87;87.74512;95577.17;;;;
2022/02/11 06:23:02;;;;;;;14.2;9.8;;;;;;;4.87;87.74512;95577.17;;;;
2022/02/11 06:24:03;;;;;;;14.2;9.8;;;;;;;4.87;87.74512;95577.17;;;;
2022/02/11 06:25:04;;;;;;;14.2;9.8;;;;;;;4.87;87.74512;95577.17;;;;
2022/02/11 06:26:06;;;;;;;14.2;9.8;;;;;;;4.87;87.74512;95577.17;;;;
2022/02/11 06:27:06;;;;;;;14.2;9.8;;;;;;;4.87;87.74512;95577.17;;;;
2022/02/11 06:28:07;;;;;;;15.05;10.85;;;;;;;4.65;90.0127;95603.62;;;;
2022/02/11 06:29:07;;;;;;;15.05;10.85;;;;;;;4.65;90.0127;95603.62;;;;
2022/02/11 06:30:08;;;;;;;15.05;10.85;;;;;;;4.65;90.0127;95603.62;;;;
2022/02/11 06:31:10;;;;;;;15.05;10.85;;;;;;;4.65;90.0127;95603.62;;;;
2022/02/11 06:32:10;;;;;;;15.05;10.85;;;;;;;4.65;90.0127;95603.62;;;;
2022/02/11 06:33:11;;;;;;;15.05;10.85;;;;;;;4.65;90.0127;95603.62;;;;
2022/02/11 06:34:11;;;;;;;15.05;10.85;;;;;;;4.65;90.0127;95603.62;;;;
2022/02/11 06:35:12;;;;;;;15.05;10.85;;;;;;;4.65;90.0127;95603.62;;;;
2022/02/11 06:36:13;;;;;;;15.05;10.85;;;;;;;4.65;90.0127;95603.62;;;;
2022/02/11 06:37:14;;;;;;;15.05;10.85;;;;;;;4.65;90.0127;95603.62;;;;
2022/02/11 06:38:17;;;;;;;15.05;10.85;;;;;;;4.65;90.0127;95603.62;;;;
2022/02/11 06:39:17;;;;;;;14.75;10.6;;;;;;;4.47;91.875;95628.13;;;;
2022/02/11 06:40:18;;;;;;;14.75;10.6;;;;;;;4.47;91.875;95628.13;;;;
2022/02/11 06:41:18;;;;;;;14.75;10.6;;;;;;;4.47;91.875;95628.13;;;;
2022/02/11 06:42:19;;;;;;;14.75;10.6;;;;;;;4.47;91.875;95628.13;;;;
2022/02/11 06:43:19;;;;;;;14.75;10.6;;;;;;;4.47;91.875;95628.13;;;;
2022/02/11 06:44:20;;;;;;;14.75;10.6;;;;;;;4.47;91.875;95628.13;;;;
2022/02/11 06:45:20;;;;;;;14.75;10.6;;;;;;;4.47;91.875;95628.13;;;;
2022/02/11 06:46:21;;;;;;;14.75;10.6;;;;;;;4.47;91.875;95628.13;;;;
2022/02/11 06:47:22;;;;;;;14.75;10.6;;;;;;;4.47;91.875;95628.13;;;;
2022/02/11 06:48:23;;;;;;;14.75;10.6;;;;;;;4.47;91.875;95628.13;;;;
2022/02/11 06:49:24;;;;;;;15.65;11.8;;;;;;;4.43;94.08008;95660.69;;;;
2022/02/11 06:50:25;;;;;;;15.65;11.8;;;;;;;4.43;94.08008;95660.69;;;;
2022/02/11 06:51:25;;;;;;;15.65;11.8;;;;;;;4.43;94.08008;95660.69;;;;
2022/02/11 06:52:26;;;;;;;15.65;11.8;;;;;;;4.43;94.08008;95660.69;;;;
2022/02/11 06:53:26;;;;;;;15.65;11.8;;;;;;;4.43;94.08008;95660.69;;;;
2022/02/11 06:54:27;;;;;;;15.65;11.8;;;;;;;4.43;94.08008;95660.69;;;;
2022/02/11 06:55:28;;;;;;;15.65;11.8;;;;;;;4.43;94.08008;95660.69;;;;
2022/02/11 06:56:28;;;;;;;15.65;11.8;;;;;;;4.43;94.08008;95660.69;;;;
2022/02/11 06:57:29;;;;;;;15.65;11.8;;;;;;;4.43;94.08008;95660.69;;;;
2022/02/11 06:58:29;;;;;;;15.65;11.8;;;;;;;4.43;94.08008;95660.69;;;;
2022/02/11 06:59:30;;;;;;;15.65;11.8;;;;;;;4.43;94.08008;95660.69;;;;
2022/02/11 07:00:30;;;;;;;10.9;8.25;;;;;;;4.38;95.60938;95701.03;;;;
2022/02/11 07:01:31;;;;;;;10.9;8.25;;;;;;;4.38;95.60938;95701.03;;;;
2022/02/11 07:02:32;;;;;;;10.9;8.25;;;;;;;4.38;95.60938;95701.03;;;;
2022/02/11 07:03:32;;;;;;;10.9;8.25;;;;;;;4.38;95.60938;95701.03;;;;
2022/02/11 07:04:33;;;;;;;10.9;8.25;;;;;;;4.38;95.60938;95701.03;;;;
2022/02/11 07:05:33;;;;;;;10.9;8.25;;;;;;;4.38;95.60938;95701.03;;;;
2022/02/11 07:06:34;;;;;;;10.9;8.25;;;;;;;4.38;95.60938;95701.03;;;;
2022/02/11 07:07:35;;;;;;;10.9;8.25;;;;;;;4.38;95.60938;95701.03;;;;
2022/02/11 07:08:36;;;;;;;10.9;8.25;;;;;;;4.38;95.60938;95701.03;;;;
2022/02/11 07:09:37;;;;;;;10.9;8.25;;;;;;;4.38;95.60938;95701.03;;;;
2022/02/11 07:10:37;;;;;;;5.7;4.799999;;;;;;;4.21;96.76563;95742.74;;;;
2022/02/11 07:11:38;;;;;;;5.7;4.799999;;;;;;;4.21;96.76563;95742.74;;;;
2022/02/11 07:12:39;;;;;;;5.7;4.799999;;;;;;;4.21;96.76563;95742.74;;;;
2022/02/11 07:13:39;;;;;;;5.7;4.799999;;;;;;;4.21;96.76563;95742.74;;;;
2022/02/11 07:14:40;;;;;;;5.7;4.799999;;;;;;;4.21;96.76563;95742.74;;;;
2022/02/11 07:15:41;;;;;;;5.7;4.799999;;;;;;;4.21;96.76563;95742.74;;;;
2022/02/11 07:16:44;;;;;;;5.7;4.799999;;;;;;;4.21;96.76563;95742.74;;;;
2022/02/11 07:17:45;;;;;;;5.7;4.799999;;;;;;;4.21;96.76563;95742.74;;;;
2022/02/11 07:18:45;;;;;;;5.7;4.799999;;;;;;;4.21;96.76563;95742.74;;;;
2022/02/11 07:19:46;;;;;;;5.7;4.799999;;;;;;;4.21;96.76563;95742.74;;;;
2022/02/11 07:20:46;;;;;;;5.7;4.799999;;;;;;;4.21;96.76563;95742.74;;;;
2022/02/11 07:21:47;;;;;;;5.2;4.249999;;;;;;;3.99;97.62793;95769.07;;;;
2022/02/11 07:22:48;;;;;;;5.2;4.249999;;;;;;;3.99;97.62793;95769.07;;;;
2022/02/11 07:23:48;;;;;;;5.2;4.249999;;;;;;;3.99;97.62793;95769.07;;;;
2022/02/11 07:24:50;;;;;;;5.2;4.249999;;;;;;;3.99;97.62793;95769.07;;;;
2022/02/11 07:25:51;;;;;;;5.2;4.249999;;;;;;;3.99;97.62793;95769.07;;;;
2022/02/11 07:26:51;;;;;;;5.2;4.249999;;;;;;;3.99;97.62793;95769.07;;;;
2022/02/11 07:27:52;;;;;;;5.2;4.249999;;;;;;;3.99;97.62793;95769.07;;;;
2022/02/11 07:28:52;;;;;;;5.2;4.249999;;;;;;;3.99;97.62793;95769.07;;;;
2022/02/11 07:29:53;;;;;;;5.2;4.249999;;;;;;;3.99;97.62793;95769.07;;;;
2022/02/11 07:30:53;;;;;;;5.2;4.249999;;;;;;;3.99;97.62793;95769.07;;;;
2022/02/11 07:31:54;;;;;;;6;4.650001;;;;;;;3.84;98.61816;95803.78;;;;
2022/02/11 07:32:55;;;;;;;6;4.650001;;;;;;;3.84;98.61816;95803.78;;;;
2022/02/11 07:33:55;;;;;;;6;4.650001;;;;;;;3.84;98.61816;95803.78;;;;
2022/02/11 07:34:57;;;;;;;6;4.650001;;;;;;;3.84;98.61816;95803.78;;;;
2022/02/11 07:35:58;;;;;;;6;4.650001;;;;;;;3.84;98.61816;95803.78;;;;
2022/02/11 07:36:59;;;;;;;6;4.650001;;;;;;;3.84;98.61816;95803.78;;;;
2022/02/11 07:38:00;;;;;;;6;4.650001;;;;;;;3.84;98.61816;95803.78;;;;
2022/02/11 07:39:00;;;;;;;6;4.650001;;;;;;;3.84;98.61816;95803.78;;;;
2022/02/11 07:40:01;;;;;;;6;4.650001;;;;;;;3.84;98.61816;95803.78;;;;
2022/02/11 07:41:02;;;;;;;6;4.650001;;;;;;;3.84;98.61816;95803.78;;;;
2022/02/11 07:42:03;;;;;;;6;4.650001;;;;;;;3.84;98.61816;95803.78;;;;
2022/02/11 07:43:04;;;;;;;6.849999;5.299999;;;;;;;3.75;99.5918;95843.59;;;;
2022/02/11 07:44:05;;;;;;;6.849999;5.299999;;;;;;;3.75;99.5918;95843.59;;;;
2022/02/11 07:45:05;;;;;;;6.849999;5.299999;;;;;;;3.75;99.5918;95843.59;;;;
2022/02/11 07:46:07;;;;;;;6.849999;5.299999;;;;;;;3.75;99.5918;95843.59;;;;
2022/02/11 07:47:07;;;;;;;6.849999;5.299999;;;;;;;3.75;99.5918;95843.59;;;;
2022/02/11 07:48:08;;;;;;;6.849999;5.299999;;;;;;;3.75;99.5918;95843.59;;;;
2022/02/11 07:49:08;;;;;;;6.849999;5.299999;;;;;;;3.75;99.5918;95843.59;;;;
2022/02/11 07:50:09;;;;;;;6.849999;5.299999;;;;;;;3.75;99.5918;95843.59;;;;
2022/02/11 07:51:10;;;;;;;6.849999;5.299999;;;;;;;3.75;99.5918;95843.59;;;;
2022/02/11 07:52:11;;;;;;;6.849999;5.299999;;;;;;;3.75;99.5918;95843.59;;;;
2022/02/11 07:53:13;;;;;;;6.149999;5.15;;;;;;;3.7;100;95869.59;;;;
2022/02/11 07:54:14;;;;;;;6.149999;5.15;;;;;;;3.7;100;95869.59;;;;
2022/02/11 07:55:15;;;;;;;6.149999;5.15;;;;;;;3.7;100;95869.59;;;;
2022/02/11 07:56:15;;;;;;;6.149999;5.15;;;;;;;3.7;100;95869.59;;;;
2022/02/11 07:57:17;;;;;;;6.149999;5.15;;;;;;;3.7;100;95869.59;;;;
2022/02/11 07:58:20;;;;;;;6.149999;5.15;;;;;;;3.7;100;95869.59;;;;
2022/02/11 07:59:21;;;;;;;6.149999;5.15;;;;;;;3.7;100;95869.59;;;;
2022/02/11 08:00:23;;;;;;;6.149999;5.15;;;;;;;3.7;100;95869.59;;;;
2022/02/11 08:01:23;;;;;;;6.149999;5.15;;;;;;;3.7;100;95869.59;;;;
2022/02/11 08:02:24;;;;;;;6.149999;5.15;;;;;;;3.7;100;95869.59;;;;
2022/02/11 08:03:24;;;;;;;6.149999;5.15;;;;;;;3.7;100;95869.59;;;;
2022/02/11 08:04:25;;;;;;;5.6;4.649999;;;;;;;3.6;100;95915.7;;;;
2022/02/11 08:05:25;;;;;;;5.6;4.649999;;;;;;;3.6;100;95915.7;;;;
2022/02/11 08:06:25;;;;;;;5.6;4.649999;;;;;;;3.6;100;95915.7;;;;
2022/02/11 08:07:26;;;;;;;5.6;4.649999;;;;;;;3.6;100;95915.7;;;;
2022/02/11 08:08:31;;;;;;;5.6;4.649999;;;;;;;3.6;100;95915.7;;;;
2022/02/11 08:09:31;;;;;;;5.6;4.649999;;;;;;;3.6;100;95915.7;;;;
2022/02/11 08:10:31;;;;;;;5.6;4.649999;;;;;;;3.6;100;95915.7;;;;
2022/02/11 08:11:32;;;;;;;5.6;4.649999;;;;;;;3.6;100;95915.7;;;;
2022/02/11 08:12:34;;;;;;;5.6;4.649999;;;;;;;3.6;100;95915.7;;;;
2022/02/11 08:13:36;;;;;;;5.6;4.649999;;;;;;;3.6;100;95915.7;;;;
2022/02/11 08:14:37;;;;;;;5;4.349999;;;;;;;3.49;100;95960.19;;;;
2022/02/11 08:15:37;;;;;;;5;4.349999;;;;;;;3.49;100;95960.19;;;;
2022/02/11 08:16:38;;;;;;;5;4.349999;;;;;;;3.49;100;95960.19;;;;
2022/02/11 08:17:41;;;;;;;5;4.349999;;;;;;;3.49;100;95960.19;;;;
2022/02/11 08:18:41;;;;;;;5;4.349999;;;;;;;3.49;100;95960.19;;;;
2022/02/11 08:19:42;;;;;;;5;4.349999;;;;;;;3.49;100;95960.19;;;;
2022/02/11 08:20:43;;;;;;;5;4.349999;;;;;;;3.49;100;95960.19;;;;
2022/02/11 08:21:43;;;;;;;5;4.349999;;;;;;;3.49;100;95960.19;;;;
2022/02/11 08:22:44;;;;;;;5;4.349999;;;;;;;3.49;100;95960.19;;;;
2022/02/11 08:23:44;;;;;;;5;4.349999;;;;;;;3.49;100;95960.19;;;;
2022/02/11 08:24:45;;;;;;;5;4.349999;;;;;;;3.49;100;95960.19;;;;
2022/02/11 08:25:45;;;;;;;4.149999;3.3;;;;;;;3.4;100;96003.52;;;;
2022/02/11 08:26:46;;;;;;;4.149999;3.3;;;;;;;3.4;100;96003.52;;;;
2022/02/11 08:27:47;;;;;;;4.149999;3.3;;;;;;;3.4;100;96003.52;;;;
2022/02/11 08:28:48;;;;;;;4.149999;3.3;;;;;;;3.4;100;96003.52;;;;
2022/02/11 08:29:48;;;;;;;4.149999;3.3;;;;;;;3.4;100;96003.52;;;;
2022/02/11 08:30:50;;;;;;;4.149999;3.3;;;;;;;3.4;100;96003.52;;;;
2022/02/11 08:31:51;;;;;;;4.149999;3.3;;;;;;;3.4;100;96003.52;;;;
2022/02/11 08:32:52;;;;;;;4.149999;3.3;;;;;;;3.4;100;96003.52;;;;
2022/02/11 08:33:53;;;;;;;4.149999;3.3;;;;;;;3.4;100;96003.52;;;;
2022/02/11 08:34:53;;;;;;;4.149999;3.3;;;;;;;3.4;100;96003.52;;;;
2022/02/11 08:35:53;;;;;;;4.199999;3.8;;;;;;;3.29;100;96029.25;;;;
2022/02/11 08:36:56;;;;;;;4.199999;3.8;;;;;;;3.29;100;96029.25;;;;
2022/02/11 08:37:57;;;;;;;4.199999;3.8;;;;;;;3.29;100;96029.25;;;;
2022/02/11 08:38:57;;;;;;;4.199999;3.8;;;;;;;3.29;100;96029.25;;;;
2022/02/11 08:39:58;;;;;;;4.199999;3.8;;;;;;;3.29;100;96029.25;;;;
2022/02/11 08:40:59;;;;;;;4.199999;3.8;;;;;;;3.29;100;96029.25;;;;
2022/02/11 08:42:00;;;;;;;4.199999;3.8;;;;;;;3.29;100;96029.25;;;;
2022/02/11 08:43:01;;;;;;;4.199999;3.8;;;;;;;3.29;100;96029.25;;;;
2022/02/11 08:44:01;;;;;;;4.199999;3.8;;;;;;;3.29;100;96029.25;;;;
2022/02/11 08:45:02;;;;;;;4.199999;3.8;;;;;;;3.29;100;96029.25;;;;
2022/02/11 08:46:04;;;;;;;4.199999;3.8;;;;;;;3.29;100;96029.25;;;;
2022/02/11 08:47:04;;;;;;;4.15;3.65;;;;;;;3.23;100;96065.05;;;;
2022/02/11 08:48:05;;;;;;;4.15;3.65;;;;;;;3.23;100;96065.05;;;;
2022/02/11 08:49:06;;;;;;;4.15;3.65;;;;;;;3.23;100;96065.05;;;;
2022/02/11 08:50:06;;;;;;;4.15;3.65;;;;;;;3.23;100;96065.05;;;;
2022/02/11 08:51:07;;;;;;;4.15;3.65;;;;;;;3.23;100;96065.05;;;;
2022/02/11 08:52:08;;;;;;;4.15;3.65;;;;;;;3.23;100;96065.05;;;;
2022/02/11 08:53:09;;;;;;;4.15;3.65;;;;;;;3.23;100;96065.05;;;;
2022/02/11 08:54:10;;;;;;;4.15;3.65;;;;;;;3.23;100;96065.05;;;;
2022/02/11 08:55:11;;;;;;;4.15;3.65;;;;;;;3.23;100;96065.05;;;;
2022/02/11 08:56:12;;;;;;;4.15;3.65;;;;;;;3.23;100;96065.05;;;;
2022/02/11 08:57:12;;;;;;;4.849999;3.8;;;;;;;3.23;100;96081.47;;;;
2022/02/11 08:58:13;;;;;;;4.849999;3.8;;;;;;;3.23;100;96081.47;;;;
2022/02/11 08:59:13;;;;;;;4.849999;3.8;;;;;;;3.23;100;96081.47;;;;
2022/02/11 09:00:14;;;;;;;4.849999;3.8;;;;;;;3.23;100;96081.47;;;;
2022/02/11 09:01:15;;;;;;;4.849999;3.8;;;;;;;3.23;100;96081.47;;;;
2022/02/11 09:02:17;;;;;;;4.849999;3.8;;;;;;;3.23;100;96081.47;;;;
2022/02/11 09:03:19;;;;;;;4.849999;3.8;;;;;;;3.23;100;96081.47;;;;
2022/02/11 09:04:20;;;;;;;4.849999;3.8;;;;;;;3.23;100;96081.47;;;;
2022/02/11 09:05:21;;;;;;;4.849999;3.8;;;;;;;3.23;100;96081.47;;;;
2022/02/11 09:06:22;;;;;;;4.849999;3.8;;;;;;;3.23;100;96081.47;;;;
2022/02/11 09:07:22;;;;;;;4.849999;3.8;;;;;;;3.23;100;96081.47;;;;
2022/02/11 09:08:24;;;;;;;4.599999;4.05;;;;;;;3.74;100;96103.23;;;;
2022/02/11 09:09:24;;;;;;;4.599999;4.05;;;;;;;3.74;100;96103.23;;;;
2022/02/11 09:10:26;;;;;;;4.599999;4.05;;;;;;;3.74;100;96103.23;;;;
2022/02/11 09:11:30;;;;;;;4.599999;4.05;;;;;;;3.74;100;96103.23;;;;